createdAt,value
2019-05-26T00:01:28.827Z,6.03
2019-05-26T00:04:03.855Z,6.80
2019-05-26T00:06:36.959Z,7.13
2019-05-26T00:09:14.913Z,6.63
2019-05-26T00:11:47.690Z,6.57
2019-05-26T00:14:22.778Z,6.70
2019-05-26T00:16:58.007Z,5.90
2019-05-26T00:19:36.593Z,6.53
2019-05-26T00:22:06.869Z,6.50
2019-05-26T00:24:38.388Z,6.27
2019-05-26T00:27:12.994Z,5.67
2019-05-26T00:29:45.819Z,5.90
2019-05-26T00:32:21.248Z,6.30
2019-05-26T00:34:53.883Z,6.70
2019-05-26T00:37:25.678Z,6.83
2019-05-26T00:39:57.422Z,5.77
2019-05-26T00:42:28.440Z,5.83
2019-05-26T00:45:06.520Z,6.40
2019-05-26T00:47:38.553Z,5.37
2019-05-26T00:50:12.988Z,6.70
2019-05-26T00:53:00.253Z,6.00
2019-05-26T00:56:35.729Z,5.97
2019-05-26T00:58:09.374Z,6.53
2019-05-26T01:00:46.353Z,5.70
2019-05-26T01:03:20.358Z,6.40
2019-05-26T01:05:49.811Z,5.40
2019-05-26T01:08:26.406Z,5.67
2019-05-26T01:11:01.285Z,5.70
2019-05-26T01:13:29.664Z,5.83
2019-05-26T01:16:01.731Z,6.27
2019-05-26T01:18:34.745Z,5.10
2019-05-26T01:21:07.399Z,6.07
2019-05-26T01:23:44.206Z,5.87
2019-05-26T01:26:15.515Z,5.97
2019-05-26T01:28:48.959Z,5.87
2019-05-26T01:31:23.235Z,5.40
2019-05-26T01:33:56.130Z,6.10
2019-05-26T01:36:27.760Z,5.63
2019-05-26T01:39:01.431Z,6.40
2019-05-26T01:41:33.688Z,5.77
2019-05-26T01:44:10.890Z,5.40
2019-05-26T01:46:49.694Z,5.60
2019-05-26T01:49:27.380Z,5.53
2019-05-26T01:52:00.666Z,5.30
2019-05-26T01:54:35.083Z,5.97
2019-05-26T01:57:08.566Z,5.53
2019-05-26T01:59:44.800Z,5.70
2019-05-26T02:02:17.029Z,5.47
2019-05-26T02:04:53.308Z,5.60
2019-05-26T02:07:26.772Z,6.33
2019-05-26T02:09:59.519Z,5.57
2019-05-26T02:12:31.654Z,6.43
2019-05-26T02:15:06.842Z,6.17
2019-05-26T02:17:47.593Z,6.90
2019-05-26T02:20:24.279Z,6.17
2019-05-26T02:22:55.300Z,5.83
2019-05-26T02:25:27.188Z,6.57
2019-05-26T02:27:59.661Z,6.27
2019-05-26T02:30:29.821Z,6.60
2019-05-26T02:32:59.078Z,7.03
2019-05-26T02:35:29.352Z,6.50
2019-05-26T02:37:59.994Z,6.57
2019-05-26T02:40:30.654Z,6.50
2019-05-26T02:43:04.487Z,6.63
2019-05-26T02:45:38.410Z,6.70
2019-05-26T02:48:17.837Z,6.80
2019-05-26T02:50:56.475Z,7.10
2019-05-26T02:53:27.395Z,6.27
2019-05-26T02:55:59.008Z,7.23
2019-05-26T02:58:34.796Z,6.93
2019-05-26T03:01:04.179Z,7.27
2019-05-26T03:03:34.238Z,7.57
2019-05-26T03:06:08.799Z,8.13
2019-05-26T03:08:39.653Z,8.10
2019-05-26T03:11:10.542Z,7.90
2019-05-26T03:13:40.805Z,7.90
2019-05-26T03:16:12.186Z,7.90
2019-05-26T03:18:42.824Z,8.77
2019-05-26T03:21:14.331Z,8.60
2019-05-26T03:23:45.538Z,9.50
2019-05-26T03:26:17.659Z,9.20
2019-05-26T03:28:46.577Z,8.77
2019-05-26T03:31:17.350Z,8.80
2019-05-26T03:33:47.772Z,9.67
2019-05-26T03:36:19.297Z,9.33
2019-05-26T03:38:48.152Z,8.17
2019-05-26T03:41:17.015Z,8.97
2019-05-26T03:43:46.261Z,9.27
2019-05-26T03:46:17.333Z,10.07
2019-05-26T03:48:46.529Z,9.57
2019-05-26T03:51:15.844Z,9.30
2019-05-26T03:53:44.746Z,9.90
2019-05-26T03:56:13.687Z,9.63
2019-05-26T03:58:42.711Z,10.63
2019-05-26T04:01:13.561Z,10.63
2019-05-26T04:03:44.544Z,11.37
2019-05-26T04:06:14.293Z,11.00
2019-05-26T04:08:47.399Z,10.27
2019-05-26T04:11:22.813Z,10.77
2019-05-26T04:13:52.684Z,11.17
2019-05-26T04:16:22.360Z,10.90
2019-05-26T04:18:52.184Z,11.33
2019-05-26T04:21:24.322Z,12.43
2019-05-26T04:23:54.022Z,12.27
2019-05-26T04:26:23.091Z,11.50
2019-05-26T04:28:51.972Z,11.10
2019-05-26T04:31:22.223Z,12.03
2019-05-26T04:33:52.496Z,12.10
2019-05-26T04:36:21.384Z,12.30
2019-05-26T04:38:50.814Z,12.33
2019-05-26T04:41:19.861Z,12.17
2019-05-26T04:43:51.150Z,14.00
2019-05-26T04:46:20.870Z,14.27
2019-05-26T04:48:51.124Z,13.13
2019-05-26T04:51:20.038Z,12.83
2019-05-26T04:53:48.931Z,13.27
2019-05-26T04:56:20.117Z,12.87
2019-05-26T04:58:58.256Z,12.80
2019-05-26T05:01:31.640Z,12.53
2019-05-26T05:04:07.574Z,11.43
2019-05-26T05:06:43.923Z,10.97
2019-05-26T05:09:23.936Z,11.97
2019-05-26T05:11:53.409Z,10.83
2019-05-26T05:14:29.997Z,11.37
2019-05-26T05:17:04.323Z,11.27
2019-05-26T05:19:36.252Z,11.23
2019-05-26T05:22:10.296Z,11.70
2019-05-26T05:24:42.770Z,11.37
2019-05-26T05:27:14.339Z,11.77
2019-05-26T05:29:47.069Z,10.03
2019-05-26T05:32:19.494Z,10.50
2019-05-26T05:34:55.183Z,11.00
2019-05-26T05:37:28.930Z,9.97
2019-05-26T05:40:00.195Z,11.10
2019-05-26T05:42:33.683Z,9.77
2019-05-26T05:45:06.232Z,10.10
2019-05-26T05:47:39.780Z,10.43
2019-05-26T05:50:13.642Z,9.93
2019-05-26T05:52:45.750Z,9.27
2019-05-26T05:55:17.409Z,9.70
2019-05-26T05:57:51.250Z,9.50
2019-05-26T06:00:27.324Z,9.03
2019-05-26T06:03:07.372Z,8.47
2019-05-26T06:05:39.412Z,7.93
2019-05-26T06:08:09.519Z,7.47
2019-05-26T06:10:40.415Z,7.30
2019-05-26T06:13:16.335Z,6.83
2019-05-26T06:15:55.381Z,6.90
2019-05-26T06:18:27.527Z,7.23
2019-05-26T06:21:00.819Z,6.60
2019-05-26T06:23:42.247Z,6.93
2019-05-26T06:26:14.616Z,7.60
2019-05-26T06:28:45.071Z,7.13
2019-05-26T06:31:20.831Z,6.93
2019-05-26T06:33:53.947Z,7.40
2019-05-26T06:36:26.587Z,6.63
2019-05-26T06:39:03.118Z,7.20
2019-05-26T06:41:36.251Z,6.97
2019-05-26T06:44:07.451Z,6.50
2019-05-26T06:46:39.066Z,7.10
2019-05-26T06:49:20.708Z,6.67
2019-05-26T06:51:49.353Z,6.63
2019-05-26T06:54:21.755Z,6.33
2019-05-26T06:56:55.133Z,6.10
2019-05-26T06:59:27.102Z,6.20
2019-05-26T07:01:58.715Z,6.93
2019-05-26T07:04:39.623Z,7.87
2019-05-26T07:07:11.329Z,6.37
2019-05-26T07:09:46.780Z,7.10
2019-05-26T07:12:20.403Z,6.77
2019-05-26T07:14:57.254Z,6.37
2019-05-26T07:17:29.640Z,7.67
2019-05-26T07:20:01.182Z,7.23
2019-05-26T07:22:37.225Z,7.10
2019-05-26T07:25:15.341Z,7.20
2019-05-26T07:27:49.203Z,7.33
2019-05-26T07:30:26.511Z,7.90
2019-05-26T07:33:14.562Z,7.93
2019-05-26T07:35:45.681Z,7.33
2019-05-26T07:38:15.534Z,7.40
2019-05-26T07:40:47.686Z,7.77
2019-05-26T07:43:21.516Z,6.83
2019-05-26T07:45:52.525Z,6.60
2019-05-26T07:48:30.171Z,5.40
2019-05-26T07:51:06.550Z,4.43
2019-05-26T07:53:49.164Z,3.87
2019-05-26T07:56:20.560Z,3.67
2019-05-26T07:58:52.751Z,3.47
2019-05-26T08:01:35.785Z,3.07
2019-05-26T08:04:00.970Z,3.23
2019-05-26T08:06:32.332Z,3.17
2019-05-26T08:09:02.188Z,3.77
2019-05-26T08:11:33.469Z,3.37
2019-05-26T08:14:04.043Z,2.90
2019-05-26T08:16:34.513Z,3.17
2019-05-26T08:19:06.904Z,2.80
2019-05-26T08:21:44.244Z,3.27
2019-05-26T08:24:22.185Z,3.33
2019-05-26T08:26:57.350Z,3.40
2019-05-26T08:29:30.078Z,2.70
2019-05-26T08:32:01.446Z,2.57
2019-05-26T08:34:35.282Z,3.00
2019-05-26T08:37:04.886Z,2.73
2019-05-26T08:39:39.761Z,2.67
2019-05-26T08:42:26.763Z,2.60
2019-05-26T08:44:52.507Z,3.10
2019-05-26T08:47:28.118Z,2.70
2019-05-26T08:49:58.984Z,2.83
2019-05-26T08:52:29.354Z,2.23
2019-05-26T08:54:59.425Z,2.13
2019-05-26T08:58:02.151Z,2.37
2019-05-26T09:00:05.382Z,2.30
2019-05-26T09:02:38.695Z,2.60
2019-05-26T09:05:11.406Z,2.43
2019-05-26T09:07:45.858Z,2.53
2019-05-26T09:10:22.616Z,2.50
2019-05-26T09:13:01.261Z,2.43
2019-05-26T09:15:31.884Z,2.10
2019-05-26T09:18:02.907Z,2.50
2019-05-26T09:20:35.096Z,2.77
2019-05-26T09:23:08.758Z,2.30
2019-05-26T09:25:38.172Z,2.03
2019-05-26T09:28:07.698Z,2.50
2019-05-26T09:30:36.549Z,2.53
2019-05-26T09:33:05.419Z,2.70
2019-05-26T09:35:37.250Z,1.90
2019-05-26T09:38:10.696Z,2.23
2019-05-26T09:40:46.138Z,2.03
2019-05-26T09:43:19.074Z,1.70
2019-05-26T09:45:50.480Z,2.00
2019-05-26T09:48:26.501Z,1.90
2019-05-26T09:50:57.789Z,1.83
2019-05-26T09:53:31.455Z,1.87
2019-05-26T09:56:04.430Z,1.90
2019-05-26T09:58:34.433Z,2.00
2019-05-26T10:01:04.920Z,1.50
2019-05-26T10:03:40.603Z,1.63
2019-05-26T10:06:19.336Z,1.33
2019-05-26T10:08:42.076Z,1.70
2019-05-26T10:11:12.174Z,2.60
2019-05-26T10:13:46.315Z,1.50
2019-05-26T10:16:19.145Z,1.67
2019-05-26T10:18:47.918Z,1.23
2019-05-26T10:21:27.402Z,1.47
2019-05-26T10:24:05.698Z,1.30
2019-05-26T10:26:36.683Z,1.37
2019-05-26T10:29:09.159Z,1.33
2019-05-26T10:31:39.873Z,1.50
2019-05-26T10:34:13.703Z,1.20
2019-05-26T10:36:51.285Z,1.40
2019-05-26T10:39:23.334Z,1.03
2019-05-26T10:41:56.375Z,1.47
2019-05-26T10:44:33.759Z,1.43
2019-05-26T10:47:09.130Z,1.47
2019-05-26T10:49:48.904Z,1.30
2019-05-26T10:52:27.168Z,1.47
2019-05-26T10:55:01.852Z,1.50
2019-05-26T10:57:34.423Z,1.77
2019-05-26T11:00:09.487Z,1.33
2019-05-26T11:02:39.006Z,1.57
2019-05-26T11:05:15.227Z,1.30
2019-05-26T11:07:50.863Z,1.40
2019-05-26T11:10:27.159Z,1.40
2019-05-26T11:13:09.520Z,1.60
2019-05-26T11:15:42.582Z,1.43
2019-05-26T11:18:18.544Z,1.30
2019-05-26T11:20:53.705Z,1.30
2019-05-26T11:23:22.685Z,1.40
2019-05-26T11:25:54.050Z,1.30
2019-05-26T11:28:26.580Z,1.40
2019-05-26T11:31:07.391Z,1.37
2019-05-26T11:33:40.105Z,1.53
2019-05-26T11:36:14.165Z,1.40
2019-05-26T11:38:52.355Z,1.27
2019-05-26T11:41:15.433Z,1.40
2019-05-26T11:43:45.810Z,1.40
2019-05-26T11:46:16.728Z,1.37
2019-05-26T11:48:47.318Z,1.50
2019-05-26T11:51:23.452Z,1.40
2019-05-26T11:54:08.451Z,1.30
2019-05-26T11:56:37.501Z,1.57
2019-05-26T11:59:18.490Z,1.30
2019-05-26T12:01:51.995Z,1.30
2019-05-26T12:04:23.451Z,1.20
2019-05-26T12:06:55.238Z,1.23
2019-05-26T12:09:24.408Z,1.00
2019-05-26T12:11:54.293Z,1.53
2019-05-26T12:14:34.634Z,1.30
2019-05-26T12:16:57.790Z,1.23
2019-05-26T12:19:28.548Z,1.00
2019-05-26T12:21:59.167Z,1.20
2019-05-26T12:24:31.616Z,1.30
2019-05-26T12:27:04.863Z,1.13
2019-05-26T12:29:43.763Z,0.93
2019-05-26T12:32:17.290Z,0.90
2019-05-26T12:34:54.634Z,1.17
2019-05-26T12:37:26.634Z,1.20
2019-05-26T12:40:00.327Z,1.20
2019-05-26T12:42:31.651Z,1.30
2019-05-26T12:45:06.139Z,1.10
2019-05-26T12:47:47.871Z,1.40
2019-05-26T12:50:19.792Z,1.13
2019-05-26T12:52:48.816Z,1.40
2019-05-26T12:55:20.829Z,1.20
2019-05-26T12:57:55.166Z,1.20
2019-05-26T13:00:25.002Z,1.20
2019-05-26T13:02:55.712Z,1.27
2019-05-26T13:05:25.092Z,1.30
2019-05-26T13:07:56.231Z,1.43
2019-05-26T13:10:33.466Z,1.43
2019-05-26T13:13:08.922Z,1.57
2019-05-26T13:15:40.749Z,1.30
2019-05-26T13:18:12.909Z,1.37
2019-05-26T13:20:44.961Z,1.50
2019-05-26T13:23:13.839Z,1.43
2019-05-26T13:25:45.557Z,1.50
2019-05-26T13:28:21.179Z,1.30
2019-05-26T13:30:50.424Z,1.63
2019-05-26T13:33:19.687Z,1.40
2019-05-26T13:35:51.668Z,1.50
2019-05-26T13:38:23.288Z,1.60
2019-05-26T13:40:56.117Z,1.70
2019-05-26T13:43:26.015Z,1.40
2019-05-26T13:45:59.880Z,1.40
2019-05-26T13:48:28.747Z,1.40
2019-05-26T13:51:02.610Z,1.80
2019-05-26T13:53:34.307Z,2.07
2019-05-26T13:56:06.308Z,1.73
2019-05-26T13:58:37.271Z,1.87
2019-05-26T14:01:14.230Z,1.70
2019-05-26T14:03:47.208Z,1.50
2019-05-26T14:06:17.705Z,1.70
2019-05-26T14:08:47.790Z,1.87
2019-05-26T14:11:27.592Z,1.70
2019-05-26T14:14:23.144Z,1.90
2019-05-26T14:16:58.151Z,1.80
2019-05-26T14:19:44.502Z,1.77
2019-05-26T14:22:52.773Z,1.70
2019-05-26T14:24:54.466Z,1.60
2019-05-26T14:27:46.832Z,1.50
2019-05-26T14:30:26.911Z,1.43
2019-05-26T14:32:58.728Z,1.60
2019-05-26T14:35:44.679Z,1.50
2019-05-26T14:38:42.338Z,1.77
2019-05-26T14:41:01.277Z,1.80
2019-05-26T14:43:45.143Z,1.60
2019-05-26T14:46:17.139Z,1.70
2019-05-26T14:49:00.704Z,1.53
2019-05-26T14:51:36.213Z,1.50
2019-05-26T14:54:12.442Z,1.90
2019-05-26T14:56:59.175Z,1.70
2019-05-26T14:59:30.522Z,1.80
2019-05-26T15:02:07.267Z,1.70
2019-05-26T15:04:43.197Z,1.90
2019-05-26T15:07:13.630Z,1.70
2019-05-26T15:09:47.474Z,1.80
2019-05-26T15:12:24.022Z,1.83
2019-05-26T15:14:55.918Z,1.60
2019-05-26T15:17:26.939Z,1.57
2019-05-26T15:20:01.793Z,1.80
2019-05-26T15:22:35.596Z,2.23
2019-05-26T15:25:10.305Z,1.60
2019-05-26T15:27:40.911Z,1.80
2019-05-26T15:30:13.680Z,1.80
2019-05-26T15:32:46.086Z,1.77
2019-05-26T15:35:15.129Z,1.97
2019-05-26T15:38:07.404Z,2.00
2019-05-26T15:40:22.448Z,1.93
2019-05-26T15:42:56.905Z,1.90
2019-05-26T15:45:39.083Z,1.90
2019-05-26T15:48:15.061Z,2.40
2019-05-26T15:50:44.957Z,2.43
2019-05-26T15:53:20.264Z,2.10
2019-05-26T15:55:55.286Z,1.90
2019-05-26T15:58:32.301Z,2.07
2019-05-26T16:01:12.139Z,1.70
2019-05-26T16:03:49.242Z,1.73
2019-05-26T16:06:25.410Z,1.53
2019-05-26T16:08:55.952Z,1.60
2019-05-26T16:11:29.306Z,2.10
2019-05-26T16:14:00.469Z,1.60
2019-05-26T16:16:40.814Z,2.07
2019-05-26T16:19:14.688Z,1.73
2019-05-26T16:24:50.479Z,2.03
2019-05-26T16:27:27.036Z,1.80
2019-05-26T16:30:03.833Z,1.60
2019-05-26T16:32:36.333Z,1.60
2019-05-26T16:35:17.376Z,1.73
2019-05-26T16:37:53.150Z,3.00
2019-05-26T16:40:23.561Z,1.80
2019-05-26T16:43:05.613Z,1.80
2019-05-26T16:45:38.154Z,1.83
2019-05-26T16:48:25.072Z,2.00
2019-05-26T16:50:56.247Z,1.60
2019-05-26T16:53:37.997Z,2.03
2019-05-26T16:56:06.356Z,1.70
2019-05-26T16:58:44.108Z,2.20
2019-05-26T17:01:15.922Z,1.60
2019-05-26T17:03:54.429Z,1.83
2019-05-26T17:06:27.750Z,1.90
2019-05-26T17:09:06.600Z,1.90
2019-05-26T17:11:46.492Z,1.77
2019-05-26T17:14:25.385Z,3.50
2019-05-26T17:17:14.312Z,1.90
2019-05-26T17:19:43.974Z,1.87
2019-05-26T17:22:21.499Z,1.60
2019-05-26T17:24:59.936Z,2.53
2019-05-26T17:27:38.673Z,2.03
2019-05-26T17:30:21.811Z,1.77
2019-05-26T17:32:53.399Z,2.90
2019-05-26T17:35:37.894Z,1.70
2019-05-26T17:38:22.980Z,1.63
2019-05-26T17:41:04.515Z,1.90
2019-05-26T17:43:40.127Z,1.60
2019-05-26T17:46:23.724Z,2.20
2019-05-26T17:49:24.124Z,2.00
2019-05-26T17:52:20.983Z,2.23
2019-05-26T17:54:54.452Z,1.70
2019-05-26T18:00:26.265Z,1.53
2019-05-26T18:03:01.543Z,1.60
2019-05-26T18:05:28.585Z,1.57
2019-05-26T18:08:00.781Z,1.53
2019-05-26T18:10:38.027Z,1.77
2019-05-26T18:13:07.239Z,2.20
2019-05-26T18:15:43.324Z,2.00
2019-05-26T18:18:20.946Z,1.63
2019-05-26T18:20:58.889Z,1.50
2019-05-26T18:23:28.812Z,1.50
2019-05-26T18:26:09.490Z,1.90
2019-05-26T18:28:53.888Z,1.70
2019-05-26T18:31:36.732Z,1.40
2019-05-26T18:34:08.962Z,1.70
2019-05-26T18:36:40.842Z,2.07
2019-05-26T18:39:15.419Z,1.87
2019-05-26T18:41:53.609Z,1.70
2019-05-26T18:44:23.706Z,1.63
2019-05-26T18:47:00.620Z,1.83
2019-05-26T18:49:33.423Z,1.80
2019-05-26T18:52:11.832Z,1.80
2019-05-26T18:54:46.154Z,1.60
2019-05-26T18:57:24.463Z,1.63
2019-05-26T18:59:54.096Z,1.70
2019-05-26T19:02:35.219Z,1.73
2019-05-26T19:05:12.954Z,1.50
2019-05-26T19:08:02.961Z,1.93
2019-05-26T19:10:36.173Z,1.63
2019-05-26T19:13:11.879Z,1.97
2019-05-26T19:15:46.503Z,1.80
2019-05-26T19:18:21.656Z,1.67
2019-05-26T19:20:55.536Z,1.60
2019-05-26T19:23:31.747Z,1.50
2019-05-26T19:26:10.620Z,1.80
2019-05-26T19:28:41.552Z,1.80
2019-05-26T19:31:18.046Z,1.73
2019-05-26T19:33:58.059Z,2.20
2019-05-26T19:36:32.763Z,1.90
2019-05-26T19:39:11.122Z,1.80
2019-05-26T19:41:47.815Z,2.00
2019-05-26T19:44:23.395Z,1.87
2019-05-26T19:49:49.721Z,2.00
2019-05-26T19:52:20.139Z,2.10
2019-05-26T19:54:56.309Z,2.20
2019-05-26T19:57:26.336Z,2.17
2019-05-26T20:02:55.426Z,1.90
2019-05-26T20:05:36.928Z,1.93
2019-05-26T20:08:19.459Z,1.97
2019-05-26T20:10:58.946Z,2.10
2019-05-26T20:13:36.010Z,2.20
2019-05-26T20:16:30.858Z,2.20
2019-05-26T20:19:03.609Z,2.10
2019-05-26T20:21:39.140Z,2.23
2019-05-26T20:24:21.748Z,2.50
2019-05-26T20:27:01.877Z,2.00
2019-05-26T20:32:31.834Z,2.10
2019-05-26T20:35:14.421Z,2.20
2019-05-26T20:37:50.383Z,2.17
2019-05-26T20:40:27.973Z,2.40
2019-05-26T20:43:02.010Z,2.50
2019-05-26T20:45:40.335Z,2.43
2019-05-26T20:48:27.832Z,2.13
2019-05-26T20:51:02.489Z,2.33
2019-05-26T20:53:44.518Z,2.30
2019-05-26T20:56:39.253Z,2.17
2019-05-26T20:59:00.217Z,2.40
2019-05-26T21:01:37.652Z,2.20
2019-05-26T21:04:22.220Z,2.20
2019-05-26T21:06:53.252Z,2.20
2019-05-26T21:09:29.332Z,1.90
2019-05-26T21:12:05.305Z,2.07
2019-05-26T21:14:39.930Z,2.10
2019-05-26T21:17:13.573Z,2.10
2019-05-26T21:19:56.751Z,2.13
2019-05-26T21:22:30.823Z,2.07
2019-05-26T21:25:10.390Z,2.20
2019-05-26T21:27:41.121Z,2.37
2019-05-26T21:30:13.302Z,2.73
2019-05-26T21:32:47.595Z,3.00
2019-05-26T21:35:19.744Z,2.97
2019-05-26T21:37:55.070Z,2.77
2019-05-26T21:40:33.034Z,2.80
2019-05-26T21:43:06.946Z,2.73
2019-05-26T21:45:39.728Z,2.70
2019-05-26T21:48:14.316Z,3.60
2019-05-26T21:50:54.071Z,3.57
2019-05-26T21:53:31.815Z,2.90
2019-05-26T21:56:07.710Z,3.57
2019-05-26T21:58:53.789Z,3.10
2019-05-26T22:01:16.227Z,3.00
2019-05-26T22:03:57.393Z,3.10
2019-05-26T22:06:28.523Z,3.40
2019-05-26T22:09:08.024Z,3.40
2019-05-26T22:11:45.207Z,3.53
2019-05-26T22:14:19.656Z,4.07
2019-05-26T22:16:56.888Z,3.67
2019-05-26T22:19:31.011Z,3.40
2019-05-26T22:22:03.808Z,3.43
2019-05-26T22:24:37.816Z,3.63
2019-05-26T22:27:10.255Z,3.00
2019-05-26T22:29:42.405Z,3.53
2019-05-26T22:32:17.220Z,3.77
2019-05-26T22:34:48.723Z,4.03
2019-05-26T22:37:21.696Z,4.10
2019-05-26T22:39:59.600Z,3.70
2019-05-26T22:42:32.278Z,3.50
2019-05-26T22:45:19.030Z,3.87
2019-05-26T22:47:58.353Z,4.40
2019-05-26T22:50:29.499Z,3.57
2019-05-26T22:53:08.111Z,3.97
2019-05-26T22:55:47.755Z,3.70
2019-05-26T22:58:35.649Z,4.17
2019-05-26T23:01:11.279Z,3.90
2019-05-26T23:03:49.914Z,4.10
2019-05-26T23:06:29.893Z,3.73
2019-05-26T23:09:04.413Z,4.57
2019-05-26T23:11:40.124Z,3.50
2019-05-26T23:14:19.813Z,3.90
2019-05-26T23:16:57.271Z,3.67
2019-05-26T23:19:27.643Z,3.67
2019-05-26T23:22:03.607Z,3.90
2019-05-26T23:24:39.127Z,3.83
2019-05-26T23:27:25.125Z,3.77
2019-05-26T23:29:58.496Z,3.33
2019-05-26T23:32:40.689Z,3.47
2019-05-26T23:35:21.866Z,3.40
2019-05-26T23:38:01.117Z,3.13
2019-05-26T23:40:42.853Z,3.03
2019-05-26T23:43:24.768Z,2.83
2019-05-26T23:46:01.590Z,2.80
2019-05-26T23:48:43.204Z,3.63
2019-05-26T23:51:17.822Z,3.20
2019-05-26T23:53:53.148Z,3.60
2019-05-26T23:56:32.030Z,2.60
2019-05-26T23:59:06.272Z,3.50
